Healing Springs, Alabama
Current Conditions -  °F | °C
As of 6:58 PM on Monday 24 Nov 2014 (Local Time) from KMEI Reporting Station
Clear Clear  
Wind Chill: 11°   Ceiling: Unl
Heat Index: 11°   Visibility: 10mi
Dew Point:   Wind: 3mph
Humidity: 61%   Direction: 290°WNW
Pressure: 30.01"   Gusts: NA
Location:  31.6272°N, 88.354°W
Report Text: KMEI 250058Z 29003KT 10SM CLR 11/04 A3001 RMK AO2 SLP159 T01110039
Loading
Personal Weather Stations






























Interactive Weather Map New forecast layout! Learn more

10-Day Weather Forecast

Advertisements
Track Severe Weather on mobile